sensor_id;sensor_type;location;lat;lon;timestamp;P1;durP1;ratioP1;P2;durP2;ratioP2
74624;SDS011;63131;52.298;8.056;2022-11-04T00:03:28;8.35;;;2.78;;
74624;SDS011;63131;52.298;8.056;2022-11-04T00:08:19;7.15;;;2.60;;
74624;SDS011;63131;52.298;8.056;2022-11-04T00:10:56;8.77;;;3.40;;
74624;SDS011;63131;52.298;8.056;2022-11-04T00:13:40;7.55;;;3.17;;
74624;SDS011;63131;52.298;8.056;2022-11-04T00:18:49;7.65;;;3.08;;
74624;SDS011;63131;52.298;8.056;2022-11-04T00:23:58;7.60;;;2.60;;
74624;SDS011;63131;52.298;8.056;2022-11-04T00:26:42;7.07;;;2.95;;
74624;SDS011;63131;52.298;8.056;2022-11-04T00:29:26;7.75;;;3.10;;
74624;SDS011;63131;52.298;8.056;2022-11-04T00:34:35;8.93;;;3.25;;
74624;SDS011;63131;52.298;8.056;2022-11-04T00:39:27;8.43;;;3.17;;
74624;SDS011;63131;52.298;8.056;2022-11-04T00:44:17;7.85;;;3.33;;
74624;SDS011;63131;52.298;8.056;2022-11-04T00:46:48;8.98;;;3.72;;
74624;SDS011;63131;52.298;8.056;2022-11-04T00:51:39;7.07;;;3.00;;
74624;SDS011;63131;52.298;8.056;2022-11-04T00:54:04;7.33;;;2.40;;
74624;SDS011;63131;52.298;8.056;2022-11-04T00:56:30;6.65;;;2.45;;
74624;SDS011;63131;52.298;8.056;2022-11-04T00:58:55;5.57;;;2.03;;
74624;SDS011;63131;52.298;8.056;2022-11-04T01:01:22;5.38;;;1.80;;
74624;SDS011;63131;52.298;8.056;2022-11-04T01:03:48;5.33;;;1.90;;
74624;SDS011;63131;52.298;8.056;2022-11-04T01:06:14;5.47;;;1.65;;
74624;SDS011;63131;52.298;8.056;2022-11-04T01:08:39;4.80;;;1.77;;
74624;SDS011;63131;52.298;8.056;2022-11-04T01:13:30;5.32;;;1.65;;
74624;SDS011;63131;52.298;8.056;2022-11-04T01:15:59;3.85;;;1.27;;
74624;SDS011;63131;52.298;8.056;2022-11-04T01:18:24;3.25;;;1.23;;
74624;SDS011;63131;52.298;8.056;2022-11-04T01:20:49;4.65;;;1.40;;
74624;SDS011;63131;52.298;8.056;2022-11-04T01:23:14;4.77;;;1.43;;
74624;SDS011;63131;52.298;8.056;2022-11-04T01:25:40;4.38;;;1.55;;
74624;SDS011;63131;52.298;8.056;2022-11-04T01:28:06;4.00;;;1.38;;
74624;SDS011;63131;52.298;8.056;2022-11-04T01:30:31;4.28;;;1.38;;
74624;SDS011;63131;52.298;8.056;2022-11-04T01:32:56;5.23;;;1.40;;
74624;SDS011;63131;52.298;8.056;2022-11-04T01:35:21;3.87;;;1.23;;
74624;SDS011;63131;52.298;8.056;2022-11-04T01:37:46;4.20;;;1.40;;
74624;SDS011;63131;52.298;8.056;2022-11-04T01:40:11;3.47;;;1.10;;
74624;SDS011;63131;52.298;8.056;2022-11-04T01:42:37;3.30;;;1.40;;
74624;SDS011;63131;52.298;8.056;2022-11-04T01:45:02;3.83;;;1.33;;
74624;SDS011;63131;52.298;8.056;2022-11-04T01:47:33;4.93;;;1.50;;
74624;SDS011;63131;52.298;8.056;2022-11-04T01:50:06;4.85;;;2.00;;
74624;SDS011;63131;52.298;8.056;2022-11-04T01:52:34;4.15;;;1.50;;
74624;SDS011;63131;52.298;8.056;2022-11-04T01:55:02;4.75;;;1.30;;
74624;SDS011;63131;52.298;8.056;2022-11-04T01:57:32;3.90;;;1.58;;
74624;SDS011;63131;52.298;8.056;2022-11-04T01:59:59;4.15;;;1.30;;
74624;SDS011;63131;52.298;8.056;2022-11-04T02:02:25;5.68;;;1.48;;
74624;SDS011;63131;52.298;8.056;2022-11-04T02:04:50;4.17;;;1.30;;
74624;SDS011;63131;52.298;8.056;2022-11-04T02:07:15;5.07;;;1.50;;
74624;SDS011;63131;52.298;8.056;2022-11-04T02:09:41;5.43;;;1.80;;
74624;SDS011;63131;52.298;8.056;2022-11-04T02:12:07;5.47;;;1.70;;
74624;SDS011;63131;52.298;8.056;2022-11-04T02:14:53;5.65;;;2.05;;
74624;SDS011;63131;52.298;8.056;2022-11-04T02:30:11;7.55;;;3.00;;
74624;SDS011;63131;52.298;8.056;2022-11-04T02:35:05;7.70;;;2.87;;
74624;SDS011;63131;52.298;8.056;2022-11-04T02:42:57;7.05;;;3.30;;
74624;SDS011;63131;52.298;8.056;2022-11-04T02:48:06;8.07;;;3.58;;
74624;SDS011;63131;52.298;8.056;2022-11-04T02:53:44;7.63;;;3.50;;
74624;SDS011;63131;52.298;8.056;2022-11-04T02:56:11;7.95;;;3.40;;
74624;SDS011;63131;52.298;8.056;2022-11-04T02:58:40;7.65;;;3.30;;
74624;SDS011;63131;52.298;8.056;2022-11-04T03:01:07;8.75;;;4.15;;
74624;SDS011;63131;52.298;8.056;2022-11-04T03:03:44;8.20;;;4.63;;
74624;SDS011;63131;52.298;8.056;2022-11-04T03:06:11;9.25;;;4.07;;
74624;SDS011;63131;52.298;8.056;2022-11-04T03:08:37;7.75;;;3.40;;
74624;SDS011;63131;52.298;8.056;2022-11-04T03:11:10;7.40;;;3.10;;
74624;SDS011;63131;52.298;8.056;2022-11-04T03:13:41;9.07;;;3.85;;
74624;SDS011;63131;52.298;8.056;2022-11-04T03:16:09;8.85;;;4.25;;
74624;SDS011;63131;52.298;8.056;2022-11-04T03:21:10;7.70;;;3.65;;
74624;SDS011;63131;52.298;8.056;2022-11-04T03:23:36;9.07;;;4.15;;
74624;SDS011;63131;52.298;8.056;2022-11-04T03:26:11;7.40;;;3.45;;
74624;SDS011;63131;52.298;8.056;2022-11-04T03:31:39;8.30;;;3.55;;
74624;SDS011;63131;52.298;8.056;2022-11-04T03:34:07;9.23;;;4.35;;
74624;SDS011;63131;52.298;8.056;2022-11-04T03:36:33;8.20;;;4.03;;
74624;SDS011;63131;52.298;8.056;2022-11-04T03:38:58;7.47;;;3.50;;
74624;SDS011;63131;52.298;8.056;2022-11-04T03:41:29;7.40;;;3.73;;
74624;SDS011;63131;52.298;8.056;2022-11-04T03:43:56;9.15;;;4.07;;
74624;SDS011;63131;52.298;8.056;2022-11-04T03:46:22;8.40;;;4.10;;
74624;SDS011;63131;52.298;8.056;2022-11-04T03:48:47;9.27;;;3.93;;
74624;SDS011;63131;52.298;8.056;2022-11-04T03:51:12;7.95;;;3.72;;
74624;SDS011;63131;52.298;8.056;2022-11-04T03:53:38;9.60;;;4.70;;
74624;SDS011;63131;52.298;8.056;2022-11-04T03:56:08;7.95;;;3.42;;
74624;SDS011;63131;52.298;8.056;2022-11-04T04:03:42;9.73;;;5.07;;
74624;SDS011;63131;52.298;8.056;2022-11-04T04:06:09;10.27;;;5.18;;
74624;SDS011;63131;52.298;8.056;2022-11-04T04:16:38;9.38;;;4.57;;
74624;SDS011;63131;52.298;8.056;2022-11-04T04:19:07;9.25;;;4.68;;
74624;SDS011;63131;52.298;8.056;2022-11-04T04:21:55;9.73;;;5.70;;
74624;SDS011;63131;52.298;8.056;2022-11-04T04:24:18;10.00;;;5.45;;
74624;SDS011;63131;52.298;8.056;2022-11-04T04:27:04;10.63;;;5.53;;
74624;SDS011;63131;52.298;8.056;2022-11-04T04:29:49;11.38;;;5.68;;
74624;SDS011;63131;52.298;8.056;2022-11-04T04:32:15;11.20;;;5.95;;
74624;SDS011;63131;52.298;8.056;2022-11-04T04:34:40;10.68;;;6.00;;
74624;SDS011;63131;52.298;8.056;2022-11-04T04:39:58;11.05;;;5.88;;
74624;SDS011;63131;52.298;8.056;2022-11-04T04:42:42;11.68;;;6.28;;
74624;SDS011;63131;52.298;8.056;2022-11-04T04:45:33;11.38;;;6.20;;
74624;SDS011;63131;52.298;8.056;2022-11-04T04:48:00;11.65;;;6.03;;
74624;SDS011;63131;52.298;8.056;2022-11-04T04:50:26;10.93;;;5.97;;
74624;SDS011;63131;52.298;8.056;2022-11-04T04:52:52;11.50;;;6.25;;
74624;SDS011;63131;52.298;8.056;2022-11-04T04:55:18;11.68;;;6.28;;
74624;SDS011;63131;52.298;8.056;2022-11-04T04:57:44;12.93;;;6.20;;
74624;SDS011;63131;52.298;8.056;2022-11-04T05:00:13;13.07;;;6.25;;
74624;SDS011;63131;52.298;8.056;2022-11-04T05:02:39;11.70;;;5.75;;
74624;SDS011;63131;52.298;8.056;2022-11-04T05:05:04;11.37;;;5.97;;
74624;SDS011;63131;52.298;8.056;2022-11-04T05:07:29;12.48;;;5.47;;
74624;SDS011;63131;52.298;8.056;2022-11-04T05:09:55;10.30;;;5.83;;
74624;SDS011;63131;52.298;8.056;2022-11-04T05:12:20;9.60;;;4.83;;
74624;SDS011;63131;52.298;8.056;2022-11-04T05:14:45;14.30;;;5.95;;
74624;SDS011;63131;52.298;8.056;2022-11-04T05:17:10;10.20;;;4.80;;
74624;SDS011;63131;52.298;8.056;2022-11-04T05:19:36;12.23;;;6.07;;
74624;SDS011;63131;52.298;8.056;2022-11-04T05:22:01;12.03;;;5.90;;
74624;SDS011;63131;52.298;8.056;2022-11-04T05:24:26;11.03;;;5.20;;
74624;SDS011;63131;52.298;8.056;2022-11-04T05:26:51;11.65;;;5.57;;
74624;SDS011;63131;52.298;8.056;2022-11-04T05:29:17;11.23;;;5.93;;
74624;SDS011;63131;52.298;8.056;2022-11-04T05:31:42;11.45;;;5.45;;
74624;SDS011;63131;52.298;8.056;2022-11-04T05:34:09;10.83;;;5.30;;
74624;SDS011;63131;52.298;8.056;2022-11-04T05:36:34;11.30;;;5.78;;
74624;SDS011;63131;52.298;8.056;2022-11-04T05:39:01;14.52;;;5.57;;
74624;SDS011;63131;52.298;8.056;2022-11-04T05:41:27;11.82;;;6.13;;
74624;SDS011;63131;52.298;8.056;2022-11-04T05:43:55;11.52;;;5.70;;
74624;SDS011;63131;52.298;8.056;2022-11-04T05:46:21;11.63;;;5.55;;
74624;SDS011;63131;52.298;8.056;2022-11-04T05:48:46;11.32;;;5.40;;
74624;SDS011;63131;52.298;8.056;2022-11-04T05:51:15;10.77;;;5.17;;
74624;SDS011;63131;52.298;8.056;2022-11-04T05:53:40;10.48;;;5.38;;
74624;SDS011;63131;52.298;8.056;2022-11-04T05:56:06;11.90;;;5.32;;
74624;SDS011;63131;52.298;8.056;2022-11-04T05:58:31;10.93;;;5.05;;
74624;SDS011;63131;52.298;8.056;2022-11-04T06:03:57;11.35;;;5.10;;
74624;SDS011;63131;52.298;8.056;2022-11-04T06:06:23;12.52;;;5.82;;
74624;SDS011;63131;52.298;8.056;2022-11-04T06:08:49;13.98;;;5.93;;
74624;SDS011;63131;52.298;8.056;2022-11-04T06:11:14;11.45;;;4.78;;
74624;SDS011;63131;52.298;8.056;2022-11-04T06:13:39;13.53;;;5.63;;
74624;SDS011;63131;52.298;8.056;2022-11-04T06:16:04;12.73;;;5.60;;
74624;SDS011;63131;52.298;8.056;2022-11-04T06:18:30;10.50;;;5.22;;
74624;SDS011;63131;52.298;8.056;2022-11-04T06:21:08;12.30;;;5.30;;
74624;SDS011;63131;52.298;8.056;2022-11-04T06:23:34;13.00;;;5.78;;
74624;SDS011;63131;52.298;8.056;2022-11-04T06:25:59;12.60;;;6.60;;
74624;SDS011;63131;52.298;8.056;2022-11-04T06:28:24;14.50;;;6.53;;
74624;SDS011;63131;52.298;8.056;2022-11-04T06:30:50;12.90;;;5.93;;
74624;SDS011;63131;52.298;8.056;2022-11-04T06:33:15;12.65;;;5.95;;
74624;SDS011;63131;52.298;8.056;2022-11-04T06:35:40;13.03;;;6.23;;
74624;SDS011;63131;52.298;8.056;2022-11-04T06:38:05;11.63;;;5.70;;
74624;SDS011;63131;52.298;8.056;2022-11-04T06:40:30;11.20;;;5.50;;
74624;SDS011;63131;52.298;8.056;2022-11-04T06:42:56;11.63;;;5.75;;
74624;SDS011;63131;52.298;8.056;2022-11-04T06:45:21;12.77;;;5.70;;
74624;SDS011;63131;52.298;8.056;2022-11-04T06:47:46;13.13;;;5.80;;
74624;SDS011;63131;52.298;8.056;2022-11-04T06:50:11;11.20;;;5.57;;
74624;SDS011;63131;52.298;8.056;2022-11-04T06:52:37;13.00;;;5.30;;
74624;SDS011;63131;52.298;8.056;2022-11-04T06:55:02;14.40;;;6.97;;
74624;SDS011;63131;52.298;8.056;2022-11-04T06:57:27;11.73;;;5.45;;
74624;SDS011;63131;52.298;8.056;2022-11-04T06:59:52;10.97;;;5.50;;
74624;SDS011;63131;52.298;8.056;2022-11-04T07:02:18;10.73;;;5.30;;
74624;SDS011;63131;52.298;8.056;2022-11-04T07:04:43;11.70;;;4.88;;
74624;SDS011;63131;52.298;8.056;2022-11-04T07:07:08;13.67;;;5.97;;
74624;SDS011;63131;52.298;8.056;2022-11-04T07:09:33;11.27;;;5.07;;
74624;SDS011;63131;52.298;8.056;2022-11-04T07:11:59;12.50;;;5.43;;
74624;SDS011;63131;52.298;8.056;2022-11-04T07:14:24;11.57;;;5.13;;
74624;SDS011;63131;52.298;8.056;2022-11-04T07:16:49;13.03;;;5.83;;
74624;SDS011;63131;52.298;8.056;2022-11-04T07:19:15;10.20;;;5.70;;
74624;SDS011;63131;52.298;8.056;2022-11-04T07:21:40;12.17;;;5.67;;
74624;SDS011;63131;52.298;8.056;2022-11-04T07:24:05;12.73;;;5.37;;
74624;SDS011;63131;52.298;8.056;2022-11-04T07:26:31;10.80;;;5.20;;
74624;SDS011;63131;52.298;8.056;2022-11-04T07:28:56;12.63;;;5.13;;
74624;SDS011;63131;52.298;8.056;2022-11-04T07:31:23;11.13;;;5.38;;
74624;SDS011;63131;52.298;8.056;2022-11-04T07:33:49;12.65;;;5.25;;
74624;SDS011;63131;52.298;8.056;2022-11-04T07:36:15;10.50;;;5.03;;
74624;SDS011;63131;52.298;8.056;2022-11-04T07:38:41;12.27;;;5.40;;
74624;SDS011;63131;52.298;8.056;2022-11-04T07:41:06;12.18;;;5.22;;
74624;SDS011;63131;52.298;8.056;2022-11-04T07:43:32;10.45;;;5.15;;
74624;SDS011;63131;52.298;8.056;2022-11-04T07:45:58;10.68;;;5.30;;
74624;SDS011;63131;52.298;8.056;2022-11-04T07:48:23;13.55;;;6.05;;
74624;SDS011;63131;52.298;8.056;2022-11-04T07:50:48;12.37;;;5.90;;
74624;SDS011;63131;52.298;8.056;2022-11-04T07:53:14;11.40;;;5.43;;
74624;SDS011;63131;52.298;8.056;2022-11-04T07:55:39;13.07;;;5.70;;
74624;SDS011;63131;52.298;8.056;2022-11-04T07:58:04;12.63;;;5.50;;
74624;SDS011;63131;52.298;8.056;2022-11-04T08:00:29;13.18;;;5.32;;
74624;SDS011;63131;52.298;8.056;2022-11-04T08:02:54;12.67;;;6.50;;
74624;SDS011;63131;52.298;8.056;2022-11-04T08:05:20;11.43;;;4.80;;
74624;SDS011;63131;52.298;8.056;2022-11-04T08:07:45;12.43;;;5.73;;
74624;SDS011;63131;52.298;8.056;2022-11-04T08:10:10;11.63;;;5.57;;
74624;SDS011;63131;52.298;8.056;2022-11-04T08:12:35;13.53;;;6.00;;
74624;SDS011;63131;52.298;8.056;2022-11-04T08:15:02;11.07;;;5.22;;
74624;SDS011;63131;52.298;8.056;2022-11-04T08:17:27;13.05;;;5.28;;
74624;SDS011;63131;52.298;8.056;2022-11-04T08:19:52;10.77;;;5.10;;
74624;SDS011;63131;52.298;8.056;2022-11-04T08:22:17;10.67;;;5.43;;
74624;SDS011;63131;52.298;8.056;2022-11-04T08:24:43;10.57;;;4.57;;
74624;SDS011;63131;52.298;8.056;2022-11-04T08:27:11;12.82;;;5.65;;
74624;SDS011;63131;52.298;8.056;2022-11-04T08:29:36;9.63;;;4.00;;
74624;SDS011;63131;52.298;8.056;2022-11-04T08:32:01;10.73;;;4.33;;
74624;SDS011;63131;52.298;8.056;2022-11-04T08:34:26;11.73;;;4.53;;
74624;SDS011;63131;52.298;8.056;2022-11-04T08:36:52;12.73;;;4.07;;
74624;SDS011;63131;52.298;8.056;2022-11-04T08:39:17;12.20;;;4.50;;
74624;SDS011;63131;52.298;8.056;2022-11-04T08:41:43;10.60;;;4.30;;
74624;SDS011;63131;52.298;8.056;2022-11-04T08:44:09;9.50;;;4.20;;
74624;SDS011;63131;52.298;8.056;2022-11-04T08:46:36;11.25;;;4.32;;
74624;SDS011;63131;52.298;8.056;2022-11-04T08:49:02;11.05;;;3.88;;
74624;SDS011;63131;52.298;8.056;2022-11-04T08:51:29;9.88;;;3.85;;
74624;SDS011;63131;52.298;8.056;2022-11-04T08:53:55;10.88;;;4.13;;
74624;SDS011;63131;52.298;8.056;2022-11-04T08:56:30;11.32;;;4.65;;
74624;SDS011;63131;52.298;8.056;2022-11-04T08:58:57;8.77;;;3.90;;
74624;SDS011;63131;52.298;8.056;2022-11-04T09:01:23;10.40;;;4.38;;
74624;SDS011;63131;52.298;8.056;2022-11-04T09:03:48;11.02;;;3.90;;
74624;SDS011;63131;52.298;8.056;2022-11-04T09:06:15;8.75;;;4.18;;
74624;SDS011;63131;52.298;8.056;2022-11-04T09:08:41;12.63;;;4.28;;
74624;SDS011;63131;52.298;8.056;2022-11-04T09:11:08;8.68;;;4.13;;
74624;SDS011;63131;52.298;8.056;2022-11-04T09:13:34;11.48;;;3.60;;
74624;SDS011;63131;52.298;8.056;2022-11-04T09:15:59;9.38;;;3.25;;
74624;SDS011;63131;52.298;8.056;2022-11-04T09:18:24;9.80;;;4.07;;
74624;SDS011;63131;52.298;8.056;2022-11-04T09:20:49;12.70;;;3.93;;
74624;SDS011;63131;52.298;8.056;2022-11-04T09:23:14;9.77;;;4.07;;
74624;SDS011;63131;52.298;8.056;2022-11-04T09:25:40;8.57;;;3.50;;
74624;SDS011;63131;52.298;8.056;2022-11-04T09:28:05;8.83;;;3.53;;
74624;SDS011;63131;52.298;8.056;2022-11-04T09:30:30;11.43;;;3.90;;
74624;SDS011;63131;52.298;8.056;2022-11-04T09:32:56;12.05;;;4.45;;
74624;SDS011;63131;52.298;8.056;2022-11-04T09:37:47;9.88;;;3.38;;
74624;SDS011;63131;52.298;8.056;2022-11-04T09:40:13;8.27;;;3.57;;
74624;SDS011;63131;52.298;8.056;2022-11-04T09:45:08;9.33;;;3.50;;
74624;SDS011;63131;52.298;8.056;2022-11-04T09:47:34;11.25;;;4.78;;
74624;SDS011;63131;52.298;8.056;2022-11-04T09:50:02;10.02;;;3.42;;
74624;SDS011;63131;52.298;8.056;2022-11-04T09:57:22;10.02;;;3.13;;
74624;SDS011;63131;52.298;8.056;2022-11-04T09:59:47;8.68;;;3.03;;
74624;SDS011;63131;52.298;8.056;2022-11-04T10:04:57;9.98;;;3.65;;
74624;SDS011;63131;52.298;8.056;2022-11-04T10:15:08;10.27;;;3.83;;
74624;SDS011;63131;52.298;8.056;2022-11-04T10:22:56;8.18;;;3.10;;
74624;SDS011;63131;52.298;8.056;2022-11-04T10:25:24;10.23;;;3.35;;
74624;SDS011;63131;52.298;8.056;2022-11-04T10:27:49;9.10;;;3.08;;
74624;SDS011;63131;52.298;8.056;2022-11-04T10:32:50;10.97;;;3.47;;
74624;SDS011;63131;52.298;8.056;2022-11-04T10:35:20;11.52;;;4.35;;
74624;SDS011;63131;52.298;8.056;2022-11-04T10:37:47;8.70;;;3.17;;
74624;SDS011;63131;52.298;8.056;2022-11-04T10:40:26;9.50;;;3.25;;
74624;SDS011;63131;52.298;8.056;2022-11-04T10:42:52;8.48;;;3.15;;
74624;SDS011;63131;52.298;8.056;2022-11-04T10:45:19;9.35;;;3.50;;
74624;SDS011;63131;52.298;8.056;2022-11-04T10:47:51;8.50;;;3.70;;
74624;SDS011;63131;52.298;8.056;2022-11-04T10:52:54;11.82;;;3.45;;
74624;SDS011;63131;52.298;8.056;2022-11-04T10:57:53;9.02;;;3.10;;
74624;SDS011;63131;52.298;8.056;2022-11-04T11:00:38;8.48;;;3.40;;
74624;SDS011;63131;52.298;8.056;2022-11-04T11:03:20;8.88;;;2.88;;
74624;SDS011;63131;52.298;8.056;2022-11-04T11:05:46;8.68;;;3.08;;
74624;SDS011;63131;52.298;8.056;2022-11-04T11:08:25;8.70;;;3.20;;
74624;SDS011;63131;52.298;8.056;2022-11-04T11:10:51;7.82;;;2.75;;
74624;SDS011;63131;52.298;8.056;2022-11-04T11:13:24;7.50;;;3.00;;
74624;SDS011;63131;52.298;8.056;2022-11-04T11:15:50;7.50;;;2.53;;
74624;SDS011;63131;52.298;8.056;2022-11-04T11:18:27;8.80;;;3.00;;
74624;SDS011;63131;52.298;8.056;2022-11-04T11:25:59;9.95;;;2.47;;
74624;SDS011;63131;52.298;8.056;2022-11-04T11:35:52;7.43;;;2.70;;
74624;SDS011;63131;52.298;8.056;2022-11-04T11:38:22;7.35;;;3.22;;
74624;SDS011;63131;52.298;8.056;2022-11-04T11:40:49;8.73;;;2.92;;
74624;SDS011;63131;52.298;8.056;2022-11-04T11:43:21;10.00;;;2.97;;
74624;SDS011;63131;52.298;8.056;2022-11-04T11:45:47;8.75;;;2.58;;
74624;SDS011;63131;52.298;8.056;2022-11-04T11:48:30;7.65;;;2.35;;
74624;SDS011;63131;52.298;8.056;2022-11-04T11:50:55;6.22;;;2.53;;
74624;SDS011;63131;52.298;8.056;2022-11-04T11:53:24;8.77;;;2.95;;
74624;SDS011;63131;52.298;8.056;2022-11-04T12:00:53;7.72;;;2.35;;
74624;SDS011;63131;52.298;8.056;2022-11-04T12:03:29;7.22;;;2.53;;
74624;SDS011;63131;52.298;8.056;2022-11-04T12:08:35;7.43;;;2.30;;
74624;SDS011;63131;52.298;8.056;2022-11-04T12:21:11;9.70;;;2.93;;
74624;SDS011;63131;52.298;8.056;2022-11-04T12:23:53;8.65;;;2.20;;
74624;SDS011;63131;52.298;8.056;2022-11-04T12:26:23;8.13;;;2.78;;
74624;SDS011;63131;52.298;8.056;2022-11-04T12:36:39;8.65;;;2.38;;
74624;SDS011;63131;52.298;8.056;2022-11-04T12:39:13;6.47;;;2.42;;
74624;SDS011;63131;52.298;8.056;2022-11-04T12:45:00;10.00;;;2.58;;
74624;SDS011;63131;52.298;8.056;2022-11-04T12:57:44;10.60;;;2.60;;
74624;SDS011;63131;52.298;8.056;2022-11-04T13:00:15;7.07;;;2.72;;
74624;SDS011;63131;52.298;8.056;2022-11-04T13:07:56;9.73;;;2.88;;
74624;SDS011;63131;52.298;8.056;2022-11-04T13:10:26;7.32;;;2.58;;
74624;SDS011;63131;52.298;8.056;2022-11-04T13:12:55;11.32;;;3.00;;
74624;SDS011;63131;52.298;8.056;2022-11-04T13:15:22;8.00;;;3.05;;
74624;SDS011;63131;52.298;8.056;2022-11-04T13:17:53;8.52;;;3.17;;
74624;SDS011;63131;52.298;8.056;2022-11-04T13:20:23;7.30;;;3.15;;
74624;SDS011;63131;52.298;8.056;2022-11-04T13:22:50;8.40;;;3.30;;
74624;SDS011;63131;52.298;8.056;2022-11-04T13:27:57;9.18;;;2.97;;
74624;SDS011;63131;52.298;8.056;2022-11-04T13:38:00;6.60;;;2.53;;
74624;SDS011;63131;52.298;8.056;2022-11-04T13:40:30;9.88;;;3.08;;
74624;SDS011;63131;52.298;8.056;2022-11-04T13:45:49;8.30;;;3.20;;
74624;SDS011;63131;52.298;8.056;2022-11-04T13:48:17;8.35;;;2.70;;
74624;SDS011;63131;52.298;8.056;2022-11-04T13:50:43;8.10;;;2.42;;
74624;SDS011;63131;52.298;8.056;2022-11-04T13:55:33;9.18;;;2.63;;
74624;SDS011;63131;52.298;8.056;2022-11-04T13:58:00;8.05;;;2.58;;
74624;SDS011;63131;52.298;8.056;2022-11-04T14:00:26;8.50;;;2.65;;
74624;SDS011;63131;52.298;8.056;2022-11-04T14:10:36;11.90;;;3.08;;
74624;SDS011;63131;52.298;8.056;2022-11-04T14:19:44;8.10;;;2.90;;
74624;SDS011;63131;52.298;8.056;2022-11-04T14:21:12;9.05;;;3.10;;
74624;SDS011;63131;52.298;8.056;2022-11-04T14:23:39;8.57;;;2.92;;
74624;SDS011;63131;52.298;8.056;2022-11-04T14:26:06;10.98;;;3.70;;
74624;SDS011;63131;52.298;8.056;2022-11-04T14:28:31;9.27;;;3.33;;
74624;SDS011;63131;52.298;8.056;2022-11-04T14:30:58;8.50;;;3.25;;
74624;SDS011;63131;52.298;8.056;2022-11-04T14:35:50;7.10;;;2.87;;
74624;SDS011;63131;52.298;8.056;2022-11-04T14:38:31;11.18;;;3.38;;
74624;SDS011;63131;52.298;8.056;2022-11-04T14:41:11;8.70;;;3.10;;
74624;SDS011;63131;52.298;8.056;2022-11-04T14:43:38;9.93;;;3.33;;
74624;SDS011;63131;52.298;8.056;2022-11-04T14:46:04;8.48;;;3.33;;
74624;SDS011;63131;52.298;8.056;2022-11-04T14:48:29;9.07;;;3.50;;
74624;SDS011;63131;52.298;8.056;2022-11-04T14:53:32;7.65;;;3.45;;
74624;SDS011;63131;52.298;8.056;2022-11-04T14:56:13;8.38;;;2.83;;
74624;SDS011;63131;52.298;8.056;2022-11-04T14:58:49;9.60;;;3.58;;
74624;SDS011;63131;52.298;8.056;2022-11-04T15:01:15;8.82;;;3.30;;
74624;SDS011;63131;52.298;8.056;2022-11-04T15:03:40;10.20;;;3.15;;
74624;SDS011;63131;52.298;8.056;2022-11-04T15:11:00;6.67;;;2.60;;
74624;SDS011;63131;52.298;8.056;2022-11-04T15:13:26;8.00;;;3.40;;
74624;SDS011;63131;52.298;8.056;2022-11-04T15:15:52;8.27;;;3.17;;
74624;SDS011;63131;52.298;8.056;2022-11-04T15:18:20;10.38;;;4.00;;
74624;SDS011;63131;52.298;8.056;2022-11-04T15:20:51;9.40;;;3.80;;
74624;SDS011;63131;52.298;8.056;2022-11-04T15:23:30;11.27;;;4.20;;
74624;SDS011;63131;52.298;8.056;2022-11-04T15:25:56;8.20;;;4.72;;
74624;SDS011;63131;52.298;8.056;2022-11-04T15:28:26;11.25;;;4.65;;
74624;SDS011;63131;52.298;8.056;2022-11-04T15:31:05;9.57;;;3.80;;
74624;SDS011;63131;52.298;8.056;2022-11-04T15:33:31;8.98;;;4.10;;
74624;SDS011;63131;52.298;8.056;2022-11-04T15:36:00;11.70;;;4.25;;
74624;SDS011;63131;52.298;8.056;2022-11-04T15:38:25;9.77;;;4.10;;
74624;SDS011;63131;52.298;8.056;2022-11-04T15:40:52;8.63;;;3.75;;
74624;SDS011;63131;52.298;8.056;2022-11-04T15:53:31;9.50;;;5.03;;
74624;SDS011;63131;52.298;8.056;2022-11-04T15:55:58;10.20;;;4.72;;
74624;SDS011;63131;52.298;8.056;2022-11-04T15:58:24;11.35;;;4.68;;
74624;SDS011;63131;52.298;8.056;2022-11-04T16:00:52;10.23;;;3.63;;
74624;SDS011;63131;52.298;8.056;2022-11-04T16:03:18;11.27;;;4.25;;
74624;SDS011;63131;52.298;8.056;2022-11-04T16:05:44;10.13;;;4.13;;
74624;SDS011;63131;52.298;8.056;2022-11-04T16:08:26;8.77;;;3.33;;
74624;SDS011;63131;52.298;8.056;2022-11-04T16:11:06;8.68;;;4.10;;
74624;SDS011;63131;52.298;8.056;2022-11-04T16:13:31;8.95;;;4.22;;
74624;SDS011;63131;52.298;8.056;2022-11-04T16:18:23;9.80;;;4.80;;
74624;SDS011;63131;52.298;8.056;2022-11-04T16:20:50;11.00;;;4.28;;
74624;SDS011;63131;52.298;8.056;2022-11-04T16:23:17;9.40;;;4.35;;
74624;SDS011;63131;52.298;8.056;2022-11-04T16:25:43;11.70;;;4.88;;
74624;SDS011;63131;52.298;8.056;2022-11-04T16:28:18;13.50;;;4.63;;
74624;SDS011;63131;52.298;8.056;2022-11-04T16:30:57;14.00;;;7.20;;
74624;SDS011;63131;52.298;8.056;2022-11-04T16:33:23;10.50;;;4.95;;
74624;SDS011;63131;52.298;8.056;2022-11-04T16:35:48;12.33;;;5.23;;
74624;SDS011;63131;52.298;8.056;2022-11-04T16:38:13;14.10;;;5.87;;
74624;SDS011;63131;52.298;8.056;2022-11-04T16:40:38;12.77;;;6.80;;
74624;SDS011;63131;52.298;8.056;2022-11-04T16:43:03;12.07;;;5.60;;
74624;SDS011;63131;52.298;8.056;2022-11-04T16:45:30;12.75;;;5.35;;
74624;SDS011;63131;52.298;8.056;2022-11-04T16:47:56;11.52;;;5.32;;
74624;SDS011;63131;52.298;8.056;2022-11-04T16:50:22;11.02;;;5.40;;
74624;SDS011;63131;52.298;8.056;2022-11-04T16:52:48;13.18;;;5.13;;
74624;SDS011;63131;52.298;8.056;2022-11-04T16:55:13;10.55;;;4.60;;
74624;SDS011;63131;52.298;8.056;2022-11-04T16:57:39;12.07;;;5.35;;
74624;SDS011;63131;52.298;8.056;2022-11-04T17:00:05;12.43;;;6.25;;
74624;SDS011;63131;52.298;8.056;2022-11-04T17:02:32;12.30;;;5.22;;
74624;SDS011;63131;52.298;8.056;2022-11-04T17:05:03;10.98;;;5.95;;
74624;SDS011;63131;52.298;8.056;2022-11-04T17:07:28;15.00;;;6.68;;
74624;SDS011;63131;52.298;8.056;2022-11-04T17:09:53;10.88;;;5.63;;
74624;SDS011;63131;52.298;8.056;2022-11-04T17:12:19;13.77;;;5.43;;
74624;SDS011;63131;52.298;8.056;2022-11-04T17:14:44;10.47;;;5.53;;
74624;SDS011;63131;52.298;8.056;2022-11-04T17:17:09;11.47;;;6.03;;
74624;SDS011;63131;52.298;8.056;2022-11-04T17:19:35;11.77;;;4.80;;
74624;SDS011;63131;52.298;8.056;2022-11-04T17:22:00;12.67;;;5.63;;
74624;SDS011;63131;52.298;8.056;2022-11-04T17:24:27;11.05;;;6.22;;
74624;SDS011;63131;52.298;8.056;2022-11-04T17:26:52;11.25;;;5.45;;
74624;SDS011;63131;52.298;8.056;2022-11-04T17:29:18;13.37;;;6.33;;
74624;SDS011;63131;52.298;8.056;2022-11-04T17:31:43;11.77;;;5.30;;
74624;SDS011;63131;52.298;8.056;2022-11-04T17:34:08;12.37;;;5.40;;
74624;SDS011;63131;52.298;8.056;2022-11-04T17:36:33;9.85;;;5.28;;
74624;SDS011;63131;52.298;8.056;2022-11-04T17:38:59;11.48;;;5.35;;
74624;SDS011;63131;52.298;8.056;2022-11-04T17:41:24;11.07;;;5.47;;
74624;SDS011;63131;52.298;8.056;2022-11-04T17:44:08;12.27;;;6.18;;
74624;SDS011;63131;52.298;8.056;2022-11-04T17:46:33;13.88;;;6.90;;
74624;SDS011;63131;52.298;8.056;2022-11-04T17:48:59;14.02;;;7.47;;
74624;SDS011;63131;52.298;8.056;2022-11-04T17:51:25;12.23;;;7.68;;
74624;SDS011;63131;52.298;8.056;2022-11-04T17:53:50;13.85;;;7.22;;
74624;SDS011;63131;52.298;8.056;2022-11-04T17:56:16;14.43;;;7.53;;
74624;SDS011;63131;52.298;8.056;2022-11-04T17:58:41;12.52;;;6.97;;
74624;SDS011;63131;52.298;8.056;2022-11-04T18:01:07;16.50;;;9.13;;
74624;SDS011;63131;52.298;8.056;2022-11-04T18:03:32;19.40;;;9.43;;
74624;SDS011;63131;52.298;8.056;2022-11-04T18:05:58;18.97;;;11.03;;
74624;SDS011;63131;52.298;8.056;2022-11-04T18:08:23;19.05;;;11.85;;
74624;SDS011;63131;52.298;8.056;2022-11-04T18:10:48;16.25;;;10.15;;
74624;SDS011;63131;52.298;8.056;2022-11-04T18:13:13;15.73;;;10.07;;
74624;SDS011;63131;52.298;8.056;2022-11-04T18:15:39;17.60;;;10.20;;
74624;SDS011;63131;52.298;8.056;2022-11-04T18:18:04;19.67;;;11.90;;